Time;durP1;ratioP1;P1;durP2;ratioP2;P2;SDS_P1;SDS_P2;PMS_P1;PMS_P2;Temp;Humidity;BMP_temperature;BMP_pressure;BME280_temperature;BME280_humidity;BME280_pressure;Samples;Min_cycle;Max_cycle;Signal;HPM_P1;HPM_P2
2023/12/10 08:20:52;;;;;;;35.55;7.45;;;10.50;99.90;;;;;;5067903;28;20925;-77
2023/12/10 08:23:17;;;;;;;38.42;7.30;;;10.50;99.90;;;;;;5069045;28;20028;-78
2023/12/10 08:25:43;;;;;;;32.15;7.00;;;10.50;99.90;;;;;;5069736;28;20379;-78
2023/12/10 08:28:08;;;;;;;33.78;8.70;;;10.50;99.90;;;;;;5070845;28;20726;-79
2023/12/10 08:30:34;;;;;;;32.25;7.63;;;10.50;99.90;;;;;;5070045;28;20485;-78
2023/12/10 08:33:00;;;;;;;35.85;7.30;;;10.50;99.90;;;;;;5070762;28;20024;-77
2023/12/10 08:35:25;;;;;;;35.40;6.45;;;10.50;99.90;;;;;;5083843;28;20024;-78
2023/12/10 08:37:51;;;;;;;29.33;6.25;;;10.50;99.90;;;;;;5079221;28;20036;-78
2023/12/10 08:40:16;;;;;;;34.63;7.13;;;10.50;99.90;;;;;;5076230;28;20494;-78
2023/12/10 08:42:42;;;;;;;43.83;7.47;;;10.50;99.90;;;;;;5073781;28;20029;-78
2023/12/10 08:45:08;;;;;;;30.38;6.95;;;10.50;99.90;;;;;;5088920;28;20028;-78
2023/12/10 08:47:35;;;;;;;35.20;6.78;;;10.60;99.90;;;;;;5082171;28;20028;-79
2023/12/10 08:50:00;;;;;;;31.33;6.72;;;10.60;99.90;;;;;;5077629;28;20024;-80
2023/12/10 08:52:26;;;;;;;32.35;6.45;;;10.60;99.90;;;;;;5074207;28;20051;-79
2023/12/10 08:54:52;;;;;;;43.38;8.27;;;10.60;99.90;;;;;;5085612;28;20039;-79
2023/12/10 08:57:29;;;;;;;39.70;7.40;;;10.50;99.90;;;;;;5070534;28;20033;-80
2023/12/10 09:00:00;;;;;;;34.25;6.78;;;10.60;99.90;;;;;;5063313;28;20079;-79
2023/12/10 09:02:25;;;;;;;33.35;6.47;;;10.50;99.90;;;;;;5069391;28;20178;-79
2023/12/10 09:04:51;;;;;;;33.60;6.82;;;10.50;99.90;;;;;;5082474;28;20103;-78
2023/12/10 09:07:16;;;;;;;39.63;7.88;;;10.60;99.90;;;;;;5070318;28;20059;-78
2023/12/10 09:09:42;;;;;;;34.50;7.13;;;10.60;99.90;;;;;;5083432;28;20035;-78
2023/12/10 09:12:07;;;;;;;32.85;7.00;;;10.60;99.90;;;;;;5077046;28;20038;-78
2023/12/10 09:14:34;;;;;;;30.17;5.68;;;10.60;99.90;;;;;;5085938;28;20029;-78
2023/12/10 09:17:00;;;;;;;31.63;6.53;;;10.60;99.90;;;;;;5071350;28;20021;-79
2023/12/10 09:19:27;;;;;;;26.52;6.10;;;10.60;99.90;;;;;;5069564;28;20075;-79
2023/12/10 09:21:53;;;;;;;28.85;5.55;;;10.60;99.90;;;;;;5064639;28;20365;-79
2023/12/10 09:24:19;;;;;;;37.95;6.85;;;10.70;99.90;;;;;;5067715;28;20514;-78
2023/12/10 09:26:45;;;;;;;31.95;7.00;;;10.70;99.90;;;;;;5067171;28;20033;-79
2023/12/10 09:29:10;;;;;;;29.10;6.35;;;10.80;99.90;;;;;;5065426;28;20107;-78
2023/12/10 09:31:36;;;;;;;32.55;5.93;;;10.80;99.90;;;;;;5060326;28;20025;-79
2023/12/10 09:34:02;;;;;;;39.17;6.57;;;10.90;99.90;;;;;;5053346;28;20033;-79
2023/12/10 09:36:27;;;;;;;30.33;6.00;;;11.00;99.90;;;;;;5056705;28;20039;-78
2023/12/10 09:38:53;;;;;;;43.92;16.13;;;11.00;99.90;;;;;;5055773;28;20037;-79
2023/12/10 09:41:19;;;;;;;31.60;5.63;;;11.00;99.90;;;;;;5056867;28;20383;-79
2023/12/10 09:43:44;;;;;;;27.23;5.78;;;11.10;99.90;;;;;;5051856;28;20518;-78
2023/12/10 09:46:11;;;;;;;33.40;6.20;;;11.10;99.90;;;;;;5052936;28;20038;-79
2023/12/10 09:48:39;;;;;;;30.25;6.60;;;11.20;99.90;;;;;;5055246;28;20049;-79
2023/12/10 09:51:05;;;;;;;35.13;6.75;;;11.30;99.90;;;;;;5055355;28;20032;-79
2023/12/10 09:53:31;;;;;;;29.60;5.68;;;11.40;99.90;;;;;;5070750;28;20081;-79
2023/12/10 09:55:56;;;;;;;27.40;5.72;;;11.40;99.90;;;;;;5037103;28;20531;-79
2023/12/10 09:58:22;;;;;;;28.00;4.85;;;11.50;99.90;;;;;;5054219;28;20037;-79
2023/12/10 10:00:47;;;;;;;34.28;6.43;;;11.80;99.90;;;;;;5052267;28;20056;-79
2023/12/10 10:03:13;;;;;;;27.75;5.07;;;12.00;99.90;;;;;;5053948;28;20112;-79
2023/12/10 10:05:38;;;;;;;33.08;6.53;;;12.00;99.90;;;;;;5052503;28;20041;-79
2023/12/10 10:08:04;;;;;;;30.08;6.03;;;11.90;99.90;;;;;;5053615;28;20029;-79
2023/12/10 10:10:30;;;;;;;30.60;5.47;;;11.80;99.90;;;;;;5052580;28;20025;-79
2023/12/10 10:12:56;;;;;;;28.48;6.20;;;11.70;99.90;;;;;;5050383;28;20039;-79
2023/12/10 10:15:29;;;;;;;27.17;5.53;;;11.70;99.90;;;;;;5054385;28;20025;-79
2023/12/10 10:17:56;;;;;;;34.28;6.25;;;11.70;99.90;;;;;;5053539;28;20074;-78
2023/12/10 10:20:23;;;;;;;30.15;5.93;;;11.50;99.90;;;;;;5053864;28;20041;-78
2023/12/10 10:22:49;;;;;;;32.42;6.00;;;11.50;99.90;;;;;;5065090;28;20047;-79
2023/12/10 10:25:15;;;;;;;32.13;5.38;;;11.60;99.90;;;;;;5056779;28;20048;-79
2023/12/10 10:27:43;;;;;;;31.77;5.72;;;11.80;99.90;;;;;;5064721;28;20114;-79
2023/12/10 10:30:10;;;;;;;33.25;5.93;;;12.00;99.90;;;;;;5066758;28;20405;-79
2023/12/10 10:32:37;;;;;;;34.88;6.82;;;12.30;99.90;;;;;;5056618;28;20090;-79
2023/12/10 10:35:04;;;;;;;26.80;5.07;;;12.50;99.90;;;;;;5045073;28;20034;-79
2023/12/10 10:37:29;;;;;;;36.70;14.82;;;12.90;99.90;;;;;;5067515;28;20047;-80
2023/12/10 10:39:56;;;;;;;40.00;15.00;;;13.20;99.90;;;;;;5061721;28;20476;-79
2023/12/10 10:42:22;;;;;;;25.25;6.13;;;13.60;99.90;;;;;;5054208;28;20031;-79
2023/12/10 10:44:47;;;;;;;29.65;6.85;;;13.90;99.90;;;;;;5071182;28;20033;-79
2023/12/10 16:17:27;;;;;;;30.42;7.35;;;9.90;99.90;;;;;;4649961;28;20363;-76
2023/12/10 16:19:52;;;;;;;32.20;6.97;;;9.70;99.90;;;;;;5010466;28;20117;-78
2023/12/10 16:22:18;;;;;;;31.13;8.05;;;9.60;99.90;;;;;;5011513;28;20042;-80
2023/12/10 16:24:43;;;;;;;32.33;7.88;;;9.50;99.90;;;;;;5012575;28;20076;-77
2023/12/10 16:27:09;;;;;;;31.58;7.65;;;9.50;99.90;;;;;;5011377;28;20145;-78
2023/12/10 16:29:35;;;;;;;26.75;7.18;;;9.40;99.90;;;;;;4993605;28;20040;-77
2023/12/10 16:32:00;;;;;;;27.65;6.80;;;9.40;99.90;;;;;;4994107;28;20129;-78
2023/12/10 16:34:26;;;;;;;24.02;5.90;;;9.30;99.90;;;;;;5011662;28;20046;-77
2023/12/10 16:36:51;;;;;;;22.98;5.82;;;9.20;99.90;;;;;;5010305;28;20066;-78
2023/12/10 16:39:17;;;;;;;27.75;6.43;;;9.10;99.90;;;;;;5011759;28;20117;-78
2023/12/10 16:41:42;;;;;;;26.17;6.45;;;9.10;99.90;;;;;;5014699;28;20033;-75
2023/12/10 16:44:08;;;;;;;29.33;6.30;;;9.00;99.90;;;;;;5015349;28;20034;-76
2023/12/10 16:46:38;;;;;;;26.13;6.10;;;9.00;99.90;;;;;;5016280;28;20428;-77
2023/12/10 16:49:11;;;;;;;30.65;7.35;;;8.90;99.90;;;;;;5015079;28;20022;-76
2023/12/10 16:51:36;;;;;;;29.17;8.32;;;8.80;99.90;;;;;;5015335;28;20045;-78
2023/12/10 16:54:02;;;;;;;29.45;6.65;;;8.90;99.90;;;;;;5015113;28;20064;-78
2023/12/10 16:56:31;;;;;;;32.33;7.43;;;8.90;99.90;;;;;;5016540;28;20033;-77
2023/12/10 16:58:57;;;;;;;30.65;7.45;;;8.80;99.90;;;;;;5013534;28;20021;-77
2023/12/10 17:01:24;;;;;;;27.88;7.03;;;8.80;99.90;;;;;;5015485;28;20084;-76
2023/12/10 17:03:49;;;;;;;36.78;7.97;;;8.80;99.90;;;;;;5013832;28;20068;-76
2023/12/10 17:06:15;;;;;;;31.20;7.90;;;8.80;99.90;;;;;;5014451;28;20466;-76
2023/12/10 17:08:42;;;;;;;25.70;7.13;;;8.80;99.90;;;;;;5015565;28;20125;-76
2023/12/10 17:11:07;;;;;;;26.95;7.35;;;8.80;99.90;;;;;;5013054;28;20458;-75
2023/12/10 17:13:32;;;;;;;32.55;8.57;;;8.80;99.90;;;;;;5015075;28;20034;-76
2023/12/10 17:15:58;;;;;;;33.20;9.75;;;8.70;99.90;;;;;;5010462;28;20034;-77
2023/12/10 17:18:24;;;;;;;28.65;8.13;;;8.70;99.90;;;;;;5009785;28;20068;-75
2023/12/10 17:20:49;;;;;;;29.92;8.30;;;8.70;99.90;;;;;;5014317;28;20061;-77
2023/12/10 17:23:15;;;;;;;29.13;8.07;;;8.70;99.90;;;;;;5014553;28;20026;-75
2023/12/10 17:25:42;;;;;;;25.90;6.78;;;8.80;99.90;;;;;;4995473;28;20021;-77
2023/12/10 17:28:07;;;;;;;29.73;8.85;;;8.80;99.90;;;;;;5015188;28;20040;-75
2023/12/10 17:30:33;;;;;;;27.67;9.57;;;8.70;99.90;;;;;;5004617;28;20030;-76
2023/12/10 17:32:59;;;;;;;32.03;8.68;;;8.70;99.90;;;;;;5016092;28;20421;-74
2023/12/10 17:35:26;;;;;;;28.58;10.15;;;8.70;99.90;;;;;;5016497;28;20026;-75
2023/12/10 17:37:52;;;;;;;32.05;12.10;;;8.70;99.90;;;;;;5015095;28;20038;-76
2023/12/10 17:40:17;;;;;;;35.60;13.35;;;8.70;99.90;;;;;;5015988;28;20424;-75
2023/12/10 17:42:43;;;;;;;66.43;13.52;;;8.70;99.90;;;;;;5013647;28;20493;-77
2023/12/10 17:45:09;;;;;;;32.10;9.77;;;8.70;99.90;;;;;;5011357;28;20026;-77
2023/12/10 17:47:34;;;;;;;30.98;9.38;;;8.70;99.90;;;;;;4995158;28;20022;-75
2023/12/10 17:50:02;;;;;;;29.52;8.85;;;8.70;99.90;;;;;;5007831;28;20026;-78
2023/12/10 17:52:27;;;;;;;25.60;9.65;;;8.80;99.90;;;;;;5014226;28;20397;-77
2023/12/10 17:54:53;;;;;;;24.23;9.40;;;8.70;99.90;;;;;;5014386;28;20034;-79
2023/12/10 17:57:19;;;;;;;22.55;9.18;;;8.80;99.90;;;;;;5012405;28;20018;-75
2023/12/10 17:59:44;;;;;;;25.83;9.60;;;8.80;99.90;;;;;;5014009;28;20030;-77
2023/12/10 18:02:10;;;;;;;69.75;42.88;;;8.80;99.90;;;;;;5012941;28;20038;-77
2023/12/10 18:04:35;;;;;;;23.88;11.05;;;8.80;99.90;;;;;;5014168;28;20458;-75
2023/12/10 18:07:01;;;;;;;27.55;11.02;;;8.80;99.90;;;;;;5014634;28;20044;-76
2023/12/10 18:09:27;;;;;;;22.17;9.10;;;8.80;99.90;;;;;;5013985;28;20033;-76
2023/12/10 18:11:52;;;;;;;24.05;12.13;;;8.80;99.90;;;;;;5013899;28;20524;-76
2023/12/10 18:14:18;;;;;;;24.00;8.80;;;8.80;99.90;;;;;;5013769;28;20087;-75
2023/12/10 18:16:45;;;;;;;21.20;10.45;;;8.80;99.90;;;;;;4996745;28;20376;-76
2023/12/10 18:19:12;;;;;;;24.35;11.35;;;8.90;99.90;;;;;;5013788;28;20036;-75
2023/12/10 18:21:37;;;;;;;22.58;8.75;;;9.00;99.90;;;;;;5014422;28;20026;-76
2023/12/10 18:24:03;;;;;;;18.60;8.38;;;9.00;99.90;;;;;;5013664;28;20032;-78
2023/12/10 18:26:30;;;;;;;20.65;10.85;;;9.00;99.90;;;;;;5014052;28;20021;-78
2023/12/10 18:28:56;;;;;;;22.80;8.77;;;9.10;99.90;;;;;;5014966;28;20034;-76
2023/12/10 18:31:22;;;;;;;17.05;8.80;;;9.20;99.90;;;;;;4996152;28;20038;-76
2023/12/10 18:33:47;;;;;;;14.82;7.00;;;9.20;99.90;;;;;;4997251;28;20033;-76
2023/12/10 18:36:13;;;;;;;15.20;8.13;;;9.30;99.90;;;;;;5014346;28;20026;-76
2023/12/10 18:38:38;;;;;;;16.40;8.98;;;9.30;99.90;;;;;;5014413;28;20422;-76
2023/12/10 18:41:04;;;;;;;19.13;8.77;;;9.40;99.90;;;;;;5014523;28;20088;-76
2023/12/10 18:43:30;;;;;;;20.80;8.90;;;9.50;99.90;;;;;;5013069;28;20048;-76
2023/12/10 18:45:55;;;;;;;19.85;9.05;;;9.50;99.90;;;;;;5011842;28;20061;-76
2023/12/10 18:48:21;;;;;;;17.73;8.50;;;9.50;99.90;;;;;;5012832;28;20119;-76
2023/12/10 18:50:47;;;;;;;19.50;8.88;;;9.60;99.90;;;;;;5013732;28;20045;-78
2023/12/10 18:53:13;;;;;;;17.40;7.50;;;9.70;99.90;;;;;;4996298;28;20021;-77
2023/12/10 18:55:38;;;;;;;62.22;41.75;;;9.80;99.90;;;;;;5013695;28;20030;-78
2023/12/10 18:58:04;;;;;;;23.52;8.70;;;9.90;99.90;;;;;;5014153;28;20104;-77
2023/12/10 19:00:29;;;;;;;28.77;9.90;;;10.00;99.90;;;;;;5013755;28;20038;-74
2023/12/10 19:02:55;;;;;;;28.30;6.93;;;10.10;99.90;;;;;;5013088;28;20026;-77
2023/12/10 19:05:20;;;;;;;30.33;7.68;;;10.20;99.90;;;;;;5012781;28;20036;-75
2023/12/10 19:07:46;;;;;;;33.83;8.23;;;10.30;99.90;;;;;;5013521;28;20397;-76
2023/12/10 19:10:12;;;;;;;36.75;9.00;;;10.40;99.90;;;;;;5014060;28;20105;-76
2023/12/10 19:12:37;;;;;;;36.13;9.52;;;10.40;99.90;;;;;;5014171;28;20022;-76
2023/12/10 19:15:03;;;;;;;34.03;7.95;;;10.50;99.90;;;;;;5013882;28;20041;-75
2023/12/10 19:17:29;;;;;;;41.50;11.25;;;10.50;99.90;;;;;;5014371;28;20050;-74
2023/12/10 19:19:55;;;;;;;47.17;13.27;;;10.60;99.90;;;;;;5012604;28;20477;-75
2023/12/10 19:22:21;;;;;;;45.85;8.93;;;10.70;99.90;;;;;;4995182;28;20037;-74
2023/12/10 19:24:46;;;;;;;39.97;8.50;;;10.70;99.90;;;;;;5003140;28;20532;-75
2023/12/10 19:27:12;;;;;;;36.25;8.68;;;10.60;99.90;;;;;;4996464;28;20053;-76
2023/12/10 19:29:38;;;;;;;43.20;8.77;;;10.70;99.90;;;;;;5013925;28;20060;-75
2023/12/10 19:32:04;;;;;;;36.92;7.97;;;10.70;99.90;;;;;;5014235;28;20080;-77
2023/12/10 19:34:30;;;;;;;43.53;8.48;;;10.80;99.90;;;;;;5014373;28;20041;-76
2023/12/10 19:36:57;;;;;;;39.58;7.50;;;10.80;99.90;;;;;;5011192;28;20034;-76
2023/12/10 19:39:22;;;;;;;38.72;9.07;;;10.80;99.90;;;;;;5012928;28;20072;-76
2023/12/10 19:41:48;;;;;;;40.40;8.10;;;10.80;99.90;;;;;;5013728;28;20116;-75
2023/12/10 19:44:14;;;;;;;38.10;9.75;;;10.80;99.90;;;;;;5012771;28;20022;-76
2023/12/10 19:46:40;;;;;;;42.22;8.30;;;10.70;99.90;;;;;;5013341;28;20032;-76
2023/12/10 19:49:05;;;;;;;34.80;7.43;;;10.70;99.90;;;;;;5013743;28;20030;-75
2023/12/10 19:51:31;;;;;;;39.22;9.48;;;10.70;99.90;;;;;;4995763;28;20410;-76
2023/12/10 19:53:57;;;;;;;35.13;7.28;;;10.70;99.90;;;;;;5012071;28;20026;-75
2023/12/10 19:56:23;;;;;;;34.33;7.55;;;10.70;99.90;;;;;;5011900;28;20026;-76
2023/12/10 19:58:48;;;;;;;36.45;6.38;;;10.60;99.90;;;;;;5013551;28;20018;-76
2023/12/10 20:01:14;;;;;;;34.70;7.53;;;10.60;99.90;;;;;;5013123;28;20046;-76
2023/12/10 20:03:40;;;;;;;36.78;7.50;;;10.60;99.90;;;;;;5013342;28;20033;-75
2023/12/10 20:06:06;;;;;;;37.47;6.53;;;10.60;99.90;;;;;;5013237;28;20033;-75
2023/12/10 20:08:32;;;;;;;43.65;7.13;;;10.60;99.90;;;;;;5011976;28;20026;-77
2023/12/10 20:10:58;;;;;;;38.60;6.90;;;10.60;99.90;;;;;;4994352;28;20069;-75
2023/12/10 20:13:24;;;;;;;30.30;6.72;;;10.60;99.90;;;;;;4993747;28;20025;-77
2023/12/10 20:15:50;;;;;;;35.97;6.95;;;10.60;99.90;;;;;;4994243;28;20370;-76
2023/12/10 20:18:19;;;;;;;41.80;8.02;;;10.50;99.90;;;;;;4993680;28;20509;-78
2023/12/10 20:20:48;;;;;;;46.55;8.18;;;10.50;99.90;;;;;;5010571;28;20048;-77
2023/12/10 20:23:16;;;;;;;37.47;7.90;;;10.50;99.90;;;;;;5012284;28;20091;-77
2023/12/10 20:25:42;;;;;;;42.83;7.28;;;10.50;99.90;;;;;;5012384;28;20018;-76
2023/12/10 20:28:14;;;;;;;43.67;8.25;;;10.50;99.90;;;;;;5011539;28;20030;-77
2023/12/10 20:30:43;;;;;;;46.13;7.82;;;10.40;99.90;;;;;;5012601;28;20026;-77
2023/12/10 20:33:09;;;;;;;43.03;7.97;;;10.40;99.90;;;;;;5012990;28;20022;-76
2023/12/10 20:35:35;;;;;;;45.63;8.32;;;10.40;99.90;;;;;;5012096;28;20032;-77
2023/12/10 20:38:00;;;;;;;37.80;8.63;;;10.40;99.90;;;;;;5012624;28;20474;-76
2023/12/10 20:40:26;;;;;;;42.42;7.63;;;10.40;99.90;;;;;;5012674;28;20069;-77
2023/12/10 20:42:52;;;;;;;38.95;7.88;;;10.40;99.90;;;;;;5013197;28;20397;-75
2023/12/10 20:45:17;;;;;;;40.40;7.93;;;10.40;99.90;;;;;;5009621;28;20222;-77
2023/12/10 20:47:43;;;;;;;110.57;52.75;;;10.40;99.90;;;;;;4993781;28;20041;-77
2023/12/10 20:50:08;;;;;;;45.95;9.63;;;10.40;99.90;;;;;;5007394;28;20033;-77
2023/12/10 20:52:34;;;;;;;46.13;9.32;;;10.40;99.90;;;;;;5012598;28;20429;-77
2023/12/10 20:55:00;;;;;;;46.05;9.23;;;10.40;99.90;;;;;;5011539;28;20030;-77
2023/12/10 20:57:26;;;;;;;41.92;10.20;;;10.40;99.90;;;;;;5012974;28;20054;-78
2023/12/10 20:59:51;;;;;;;47.40;9.68;;;10.40;99.90;;;;;;5013255;28;20026;-77
2023/12/10 21:02:17;;;;;;;49.42;9.43;;;10.40;99.90;;;;;;5009219;28;20394;-77
2023/12/10 21:04:44;;;;;;;53.03;11.13;;;10.40;99.90;;;;;;4998855;28;20069;-78
2023/12/10 21:07:09;;;;;;;46.55;8.85;;;10.40;99.90;;;;;;5011509;28;20069;-77
2023/12/10 21:09:35;;;;;;;51.33;9.18;;;10.40;99.90;;;;;;5012714;28;20491;-78
2023/12/10 21:12:04;;;;;;;51.55;9.35;;;10.40;99.90;;;;;;5013198;28;20030;-77
2023/12/10 21:14:30;;;;;;;52.92;9.70;;;10.40;99.90;;;;;;5010219;28;20112;-78
2023/12/10 21:16:56;;;;;;;45.72;9.68;;;10.40;99.90;;;;;;5010756;28;20069;-77
2023/12/10 21:19:21;;;;;;;49.63;10.55;;;10.40;99.90;;;;;;5008313;28;20401;-77
2023/12/10 21:21:47;;;;;;;51.00;10.10;;;10.40;99.90;;;;;;5012183;28;20026;-77
2023/12/10 21:24:17;;;;;;;53.40;10.90;;;10.40;99.90;;;;;;5012119;28;20034;-78
2023/12/10 21:26:43;;;;;;;47.88;10.43;;;10.40;99.90;;;;;;5012043;28;20064;-77
2023/12/10 21:29:09;;;;;;;47.00;9.00;;;10.50;99.90;;;;;;4998339;28;20061;-78
2023/12/10 21:31:35;;;;;;;60.17;9.68;;;10.50;99.90;;;;;;5016431;28;20060;-78
2023/12/10 21:34:04;;;;;;;48.72;10.70;;;10.50;99.90;;;;;;5015972;28;20519;-79
2023/12/10 21:36:33;;;;;;;53.60;10.13;;;10.50;99.90;;;;;;5014498;28;20044;-77
2023/12/10 21:39:04;;;;;;;56.47;10.55;;;10.40;99.90;;;;;;5015206;28;20030;-76
2023/12/10 21:41:30;;;;;;;49.00;9.70;;;10.40;99.90;;;;;;5015581;28;20117;-77
2023/12/10 21:44:08;;;;;;;56.58;10.60;;;10.40;99.90;;;;;;5013850;28;20152;-77
2023/12/10 21:46:35;;;;;;;63.05;13.15;;;10.40;99.90;;;;;;5014177;28;20051;-78
2023/12/10 21:49:09;;;;;;;54.70;10.88;;;10.40;99.90;;;;;;5015807;28;20753;-77
2023/12/10 21:51:37;;;;;;;52.05;10.13;;;10.40;99.90;;;;;;5012850;28;20022;-77
2023/12/10 21:54:05;;;;;;;56.97;12.18;;;10.40;99.90;;;;;;5013409;28;20025;-78
2023/12/10 21:56:32;;;;;;;57.92;11.48;;;10.40;99.90;;;;;;5015164;28;20029;-78
2023/12/10 21:58:57;;;;;;;52.10;9.85;;;10.30;99.90;;;;;;5014555;28;20026;-78
2023/12/10 22:01:24;;;;;;;54.63;10.68;;;10.30;99.90;;;;;;5014955;28;20397;-78
2023/12/10 22:03:50;;;;;;;58.40;10.43;;;10.30;99.90;;;;;;5014433;28;20026;-78
2023/12/10 22:06:16;;;;;;;52.13;9.77;;;10.30;99.90;;;;;;5015319;28;20029;-77
2023/12/10 22:08:42;;;;;;;45.78;10.30;;;10.30;99.90;;;;;;5015393;28;20366;-77
2023/12/10 22:11:17;;;;;;;50.35;11.05;;;10.30;99.90;;;;;;5003947;28;20023;-77
2023/12/10 22:13:43;;;;;;;48.38;9.32;;;10.30;99.90;;;;;;4994612;28;20057;-76
2023/12/10 22:16:14;;;;;;;51.08;9.45;;;10.20;99.90;;;;;;5002136;28;20026;-78
2023/12/10 22:18:40;;;;;;;55.53;9.68;;;10.30;99.90;;;;;;5014985;28;20050;-77
2023/12/10 22:21:06;;;;;;;45.70;10.10;;;10.20;99.90;;;;;;5014054;28;20512;-78
2023/12/10 22:23:32;;;;;;;53.63;9.95;;;10.20;99.90;;;;;;5015212;28;20018;-79
2023/12/10 22:25:58;;;;;;;47.85;10.00;;;10.20;99.90;;;;;;5015248;28;20061;-78
2023/12/10 22:28:24;;;;;;;57.75;10.40;;;10.20;99.90;;;;;;5008557;28;20041;-79
2023/12/10 22:30:49;;;;;;;48.25;10.15;;;10.10;99.90;;;;;;5014479;28;20037;-78
2023/12/10 22:33:15;;;;;;;49.80;10.48;;;10.20;99.90;;;;;;5014888;28;20018;-78
2023/12/10 22:35:41;;;;;;;41.83;8.93;;;10.20;99.90;;;;;;5014232;28;20048;-78
2023/12/10 22:38:06;;;;;;;54.67;8.95;;;10.20;99.90;;;;;;5014308;28;20385;-78
2023/12/10 22:40:32;;;;;;;52.50;9.15;;;10.20;99.90;;;;;;4996686;28;20038;-78
2023/12/10 22:43:01;;;;;;;50.67;9.88;;;10.30;99.90;;;;;;5014888;28;20052;-78
2023/12/10 22:45:26;;;;;;;49.42;8.88;;;10.30;99.90;;;;;;5012990;28;20101;-80
2023/12/10 22:47:53;;;;;;;44.08;7.88;;;10.40;99.90;;;;;;5014180;28;20123;-79
2023/12/10 22:50:18;;;;;;;45.40;10.13;;;10.40;99.90;;;;;;5014649;28;20033;-79
2023/12/10 22:52:48;;;;;;;47.83;8.88;;;10.50;99.90;;;;;;5011074;28;20033;-79
2023/12/10 22:55:15;;;;;;;45.40;9.00;;;10.50;99.90;;;;;;5014316;28;20030;-77
2023/12/10 22:57:41;;;;;;;38.90;8.52;;;10.60;99.90;;;;;;5014113;28;20469;-77
2023/12/10 23:00:14;;;;;;;42.30;8.75;;;10.60;99.90;;;;;;5013925;28;20034;-79
2023/12/10 23:02:40;;;;;;;49.67;9.18;;;10.70;99.90;;;;;;4989220;28;20030;-79
2023/12/10 23:05:07;;;;;;;41.03;8.52;;;10.70;99.90;;;;;;5014158;28;20362;-76
2023/12/10 23:07:32;;;;;;;39.22;7.95;;;10.70;99.90;;;;;;5014561;28;20409;-76
2023/12/10 23:09:58;;;;;;;47.30;8.50;;;10.60;99.90;;;;;;5012401;28;20022;-77
2023/12/10 23:12:23;;;;;;;42.03;8.38;;;10.60;99.90;;;;;;5011939;28;20033;-78
2023/12/10 23:14:49;;;;;;;42.45;8.45;;;10.60;99.90;;;;;;5014274;28;20033;-77
2023/12/10 23:17:14;;;;;;;48.00;9.52;;;10.50;99.90;;;;;;5013690;28;20054;-77
2023/12/10 23:19:40;;;;;;;46.33;9.32;;;10.40;99.90;;;;;;5014164;28;20092;-77
2023/12/10 23:22:05;;;;;;;55.25;9.05;;;10.40;99.90;;;;;;5013918;28;20041;-77
2023/12/10 23:24:31;;;;;;;58.20;10.73;;;10.40;99.90;;;;;;5014576;28;20030;-78
2023/12/10 23:26:59;;;;;;;46.53;9.80;;;10.40;99.90;;;;;;5005129;28;20030;-78
2023/12/10 23:29:24;;;;;;;49.40;10.05;;;10.40;99.90;;;;;;5006756;28;20116;-77
2023/12/10 23:31:50;;;;;;;49.30;9.77;;;10.30;99.90;;;;;;5012550;28;20413;-77
2023/12/10 23:34:15;;;;;;;52.45;10.25;;;10.30;99.90;;;;;;5013904;28;20462;-78
2023/12/10 23:36:41;;;;;;;53.80;10.38;;;10.30;99.90;;;;;;5008560;28;20026;-78
2023/12/10 23:39:08;;;;;;;54.45;10.57;;;10.30;99.90;;;;;;5013084;28;20469;-78
2023/12/10 23:41:39;;;;;;;56.65;10.80;;;10.30;99.90;;;;;;5007614;28;20394;-78
2023/12/10 23:44:06;;;;;;;46.58;9.68;;;10.30;99.90;;;;;;5013573;28;20056;-76
2023/12/10 23:46:32;;;;;;;51.72;10.20;;;10.20;99.90;;;;;;4994180;28;20065;-77
2023/12/10 23:48:59;;;;;;;56.95;11.40;;;10.20;99.90;;;;;;5012201;28;20496;-78
2023/12/10 23:51:24;;;;;;;51.35;9.60;;;10.20;99.90;;;;;;5010729;28;20050;-77
2023/12/10 23:53:50;;;;;;;48.92;9.98;;;10.20;99.90;;;;;;5011860;28;20466;-77
2023/12/10 23:56:15;;;;;;;54.83;10.25;;;10.20;99.90;;;;;;5011587;28;20030;-78
2023/12/10 23:58:41;;;;;;;51.13;9.95;;;10.20;99.90;;;;;;5012542;28;20044;-77
